| time (UTC) | temp F | wind direction | speed MPH | gust MPH | rain 1hr in | rain 24hr in | rain mn in | humidity % | barometer mb |
| 20260504045645 | 54 | 0.0 | 0.0 | 0.19 | 0.07 | 0.00 | 26 | 921.0 | |
| 20260504044145 | 54 | 0.0 | 0.0 | 0.19 | 0.07 | 0.00 | 26 | 921.0 | |
| 20260504042645 | 54 | 0.0 | 0.0 | 0.19 | 0.07 | 0.00 | 26 | 921.0 | |
| 20260504041146 | 54 | 0.0 | 0.0 | 0.19 | 0.07 | 0.00 | 26 | 921.0 | |
| 20260504035645 | 54 | 0.0 | 0.0 | 0.19 | 0.07 | 0.00 | 26 | 921.0 | |
| 20260504034146 | 54 | 0.0 | 0.0 | 0.19 | 0.07 | 0.00 | 26 | 921.0 | |
| 20260504032645 | 54 | 0.0 | 0.0 | 0.19 | 0.07 | 0.00 | 26 | 921.0 | |
| 20260504031145 | 54 | 0.0 | 0.0 | 0.19 | 0.07 | 0.00 | 26 | 921.0 | |
| 20260504025645 | 56 | 0.0 | 0.0 | 0.74 | 0.07 | 0.00 | 20 | 921.0 | |
| 20260504024145 | 56 | 0.0 | 0.0 | 0.74 | 0.07 | 0.00 | 20 | 921.0 | |
| 20260504022646 | 56 | 0.0 | 0.0 | 0.00 | 0.07 | 0.00 | 22 | 921.0 | |
| 20260504021146 | 56 | 0.0 | 0.0 | 0.00 | 0.07 | 0.00 | 20 | 921.0 | |
| 20260504015646 | 57 | 0.0 | 0.0 | 0.00 | 0.07 | 0.00 | 20 | 922.0 | |
| 20260504014146 | 57 | 0.0 | 0.0 | 0.00 | 0.07 | 0.00 | 17 | 922.0 | |
| 20260504012646 | 57 | 0.0 | 0.0 | 0.00 | 0.07 | 0.00 | 17 | 922.0 | |
| 20260504011146 | 57 | 0.0 | 0.0 | 0.00 | 0.07 | 0.00 | 17 | 922.0 | |
| 20260504005646 | 57 | 0.0 | 0.0 | 0.00 | 0.07 | 0.00 | 17 | 922.0 | |
| 20260504004146 | 57 | 0.0 | 0.0 | 0.00 | 0.07 | 0.00 | 17 | 922.0 | |
| 20260504002646 | 57 | 0.0 | 0.0 | 0.00 | 0.07 | 0.00 | 14 | 922.0 | |
| 20260504001146 | 57 | 0.0 | 0.0 | 0.00 | 0.07 | 0.00 | 14 | 922.0 | |
| 20260503235646 | 57 | 0.0 | 0.0 | 0.00 | 0.07 | 0.00 | 14 | 922.0 | |
| 20260503234146 | 57 | 0.0 | 0.0 | 0.00 | 0.07 | 0.00 | 14 | 922.0 | |
| 20260503232646 | 57 | 0.0 | 0.0 | 0.00 | 0.07 | 0.00 | 14 | 922.0 | |
| 20260503231146 | 58 | 0.0 | 0.0 | 0.00 | 0.07 | 0.00 | 14 | 922.0 | |
| 20260503225646 | 58 | 0.0 | 0.0 | 0.00 | 0.07 | 0.00 | 14 | 922.0 | |
| 20260503224147 | 58 | 0.0 | 0.0 | 0.00 | 0.07 | 0.00 | 14 | 922.0 | |
| 20260503222646 | 58 | 0.0 | 0.0 | 0.00 | 0.07 | 0.00 | 14 | 922.0 | |
| 20260503221146 | 58 | 0.0 | 0.0 | 0.00 | 0.07 | 0.00 | 14 | 922.0 | |
| 20260503215646 | 58 | 0.0 | 0.0 | 0.00 | 0.07 | 0.00 | 14 | 922.0 | |
| 20260503214147 | 59 | 0.0 | 0.0 | 0.00 | 0.07 | 0.00 | 14 | 922.0 | |
| 20260503212646 | 59 | 0.0 | 0.0 | 0.00 | 0.07 | 0.00 | 17 | 922.0 | |
| 20260503211146 | 59 | 0.0 | 0.0 | 0.00 | 0.07 | 0.00 | 17 | 922.0 | |
| 20260503205646 | 60 | 0.0 | 0.0 | 0.00 | 0.07 | 0.00 | 17 | 922.0 | |
| 20260503204147 | 60 | 0.0 | 0.0 | 0.00 | 0.07 | 0.00 | 17 | 922.0 | |
| 20260503202646 | 60 | 0.0 | 0.0 | 0.00 | 0.07 | 0.00 | 17 | 922.0 | |
| 20260503201146 | 60 | 0.0 | 0.0 | 0.00 | 0.07 | 0.00 | 17 | 922.0 | |
| 20260503195647 | 60 | 0.0 | 0.0 | 0.00 | 0.07 | 0.00 | 16 | 922.0 | |
| 20260503194147 | 61 | 0.0 | 0.0 | 0.00 | 0.07 | 0.00 | 16 | 922.0 | |
| 20260503192646 | 60 | 0.0 | 0.0 | 0.00 | 0.07 | 0.00 | 16 | 922.0 | |
| 20260503191146 | 60 | 0.0 | 0.0 | 0.00 | 0.07 | 0.00 | 16 | 922.0 | |
| 20260503185647 | 61 | 0.0 | 0.0 | 0.00 | 0.07 | 0.00 | 14 | 922.0 | |
| 20260503184146 | 63 | 0.0 | 0.0 | 0.00 | 0.07 | 0.00 | 11 | 921.0 | |
| 20260503182646 | 63 | 0.0 | 0.0 | 0.00 | 0.07 | 0.00 | 11 | 921.0 | |
| 20260503181146 | 63 | 0.0 | 0.0 | 0.00 | 0.07 | 0.00 | 11 | 921.0 | |
| 20260503175646 | 64 | 0.0 | 0.0 | 0.00 | 0.07 | 0.00 | 10 | 921.0 | |
| 20260503174146 | 64 | 0.0 | 0.0 | 0.00 | 0.07 | 0.00 | 10 | 921.0 | |
| 20260503172647 | 65 | 0.0 | 0.0 | 0.00 | 0.07 | 0.00 | 10 | 921.0 | |
| 20260503171147 | 67 | 0.0 | 0.0 | 0.00 | 0.07 | 0.00 | 10 | 920.0 | |
| 20260503131147 | 67 | 0.0 | 0.0 | 0.00 | 0.07 | 0.00 | 10 | 921.0 | |
| 20260503081147 | 59 | 0.0 | 0.0 | 0.00 | 0.07 | 0.00 | 24 | 922.0 | |
| 20260503072647 | 57 | 0.0 | 0.0 | 0.00 | 0.07 | 0.00 | 28 | 922.0 | |
| 20260503071148 | 56 | 0.0 | 0.0 | 0.00 | 0.07 | 0.00 | 28 | 922.0 | |
| 20260503054148 | 55 | 0.0 | 0.0 | 0.00 | 0.07 | 0.00 | 26 | 922.0 | |
| 20260503052648 | 55 | 0.0 | 0.0 | 0.00 | 0.07 | 0.00 | 26 | 922.0 | |
| 20260503051148 | 55 | 0.0 | 0.0 | 0.00 | 0.07 | 0.00 | 25 | 921.0 |